createdAt,value
2023-04-01T00:00:19.451Z,98565.69
2023-04-01T00:02:49.450Z,98580.31
2023-04-01T00:05:17.668Z,98562.28
2023-04-01T00:07:45.344Z,98565.72
2023-04-01T00:10:14.425Z,98583.72
2023-04-01T00:12:42.566Z,98568.28
2023-04-01T00:15:12.576Z,98597.47
2023-04-01T00:17:40.521Z,98570.00
2023-04-01T00:20:10.611Z,98580.28
2023-04-01T00:22:38.257Z,98557.09
2023-04-01T00:25:06.667Z,98565.69
2023-04-01T00:27:34.253Z,98570.00
2023-04-01T00:30:02.130Z,98567.41
2023-04-01T00:32:29.939Z,98557.97
2023-04-01T00:34:59.875Z,98566.56
2023-04-01T00:37:28.839Z,98571.72
2023-04-01T00:39:56.819Z,98574.28
2023-04-01T00:42:25.075Z,98573.41
2023-04-01T00:44:55.693Z,98569.97
2023-04-01T00:47:24.449Z,98561.41
2023-04-01T00:49:54.074Z,98551.97
2023-04-01T00:52:25.019Z,98557.97
2023-04-01T00:54:58.767Z,98561.41
2023-04-01T00:57:31.560Z,98571.69
2023-04-01T01:00:00.249Z,98559.69
2023-04-01T01:02:28.026Z,98576.00
2023-04-01T01:04:55.604Z,98564.84
2023-04-01T01:07:34.093Z,98560.56
2023-04-01T01:10:09.614Z,98547.69
2023-04-01T01:12:46.752Z,98557.97
2023-04-01T01:15:22.861Z,98569.13
2023-04-01T01:17:59.646Z,98551.13
2023-04-01T01:20:56.901Z,98563.97
2023-04-01T01:23:38.469Z,98550.25
2023-04-01T01:26:27.127Z,98568.28
2023-04-01T01:29:03.698Z,98557.97
2023-04-01T01:31:38.832Z,98575.97
2023-04-01T01:47:10.820Z,98551.09
2023-04-01T01:49:41.417Z,98542.50
2023-04-01T01:52:08.980Z,98552.78
2023-04-01T01:54:37.096Z,98550.22
2023-04-01T01:57:08.214Z,98545.09
2023-04-01T01:59:40.363Z,98548.50
2023-04-01T02:02:11.860Z,98540.78
2023-04-01T02:04:42.757Z,98539.09
2023-04-01T02:07:16.180Z,98575.13
2023-04-01T02:09:44.199Z,98546.78
2023-04-01T02:12:14.756Z,98536.47
2023-04-01T02:14:47.574Z,98545.03
2023-04-01T02:17:18.749Z,98543.31
2023-04-01T02:19:51.845Z,98548.47
2023-04-01T02:22:25.014Z,98533.91
2023-04-01T02:24:55.716Z,98530.47
2023-04-01T02:27:23.728Z,98542.50
2023-04-01T02:29:51.895Z,98533.06
2023-04-01T02:32:22.362Z,98555.34
2023-04-01T02:34:50.375Z,98538.19
2023-04-01T02:37:18.473Z,98534.75
2023-04-01T02:39:46.072Z,98535.63
2023-04-01T02:42:15.522Z,98545.06
2023-04-01T02:44:43.153Z,98553.66
2023-04-01T02:47:10.806Z,98532.22
2023-04-01T02:49:39.970Z,98544.22
2023-04-01T02:52:07.817Z,98527.06
2023-04-01T02:54:35.503Z,98524.47
2023-04-01T02:57:03.128Z,98530.50
2023-04-01T02:59:30.895Z,98554.50
2023-04-01T03:01:58.698Z,98542.50
2023-04-01T03:04:26.410Z,98536.50
2023-04-01T03:06:56.266Z,98541.66
2023-04-01T03:09:23.833Z,98538.19
2023-04-01T03:11:51.446Z,98545.06
2023-04-01T03:14:19.001Z,98538.22
2023-04-01T03:16:47.248Z,98535.63
2023-04-01T03:19:14.856Z,98537.34
2023-04-01T03:21:42.437Z,98532.19
2023-04-01T03:24:11.518Z,98539.91
2023-04-01T03:26:39.180Z,98540.75
2023-04-01T03:29:07.538Z,98539.06
2023-04-01T03:31:35.563Z,98556.19
2023-04-01T03:34:03.253Z,98544.19
2023-04-01T03:36:31.265Z,98548.50
2023-04-01T03:38:58.831Z,98535.66
2023-04-01T03:41:37.878Z,98567.34
2023-04-01T03:44:05.762Z,98540.75
2023-04-01T03:46:33.413Z,98536.50
2023-04-01T03:49:01.013Z,98548.47
2023-04-01T03:51:28.649Z,98537.34
2023-04-01T03:53:56.769Z,98555.34
2023-04-01T03:56:24.368Z,98531.31
2023-04-01T03:58:53.438Z,98534.75
2023-04-01T04:01:23.155Z,98548.50
2023-04-01T04:03:54.282Z,98533.06
2023-04-01T04:06:23.772Z,98534.78
2023-04-01T04:08:51.891Z,98526.19
2023-04-01T04:11:20.931Z,98530.47
2023-04-01T04:13:49.694Z,98525.34
2023-04-01T04:16:19.218Z,98549.38
2023-04-01T04:18:52.364Z,98525.34
2023-04-01T04:21:20.040Z,98534.78
2023-04-01T04:23:47.687Z,98527.06
2023-04-01T04:26:17.689Z,98522.78
2023-04-01T04:28:51.414Z,98521.94
2023-04-01T04:31:22.937Z,98519.34
2023-04-01T04:33:52.281Z,98520.22
2023-04-01T04:36:20.499Z,98515.06
2023-04-01T04:38:50.285Z,98517.63
2023-04-01T04:41:20.498Z,98512.47
2023-04-01T04:43:52.170Z,98508.19
2023-04-01T04:46:22.450Z,98520.19
2023-04-01T04:48:54.084Z,98507.34
2023-04-01T04:51:23.452Z,98503.06
2023-04-01T04:53:52.885Z,98511.63
2023-04-01T04:56:26.149Z,98507.34
2023-04-01T04:59:06.218Z,98497.88
2023-04-01T05:01:44.381Z,98502.19
2023-04-01T05:04:12.165Z,98502.19
2023-04-01T05:06:39.875Z,98502.19
2023-04-01T05:09:07.991Z,98497.91
2023-04-01T05:11:35.952Z,98485.91
2023-04-01T05:14:03.612Z,98491.03
2023-04-01T05:16:33.323Z,98494.47
2023-04-01T05:19:02.611Z,98494.50
2023-04-01T05:21:30.356Z,98500.47
2023-04-01T05:23:58.466Z,98492.75
2023-04-01T05:26:27.119Z,98487.59
2023-04-01T05:28:54.807Z,98486.72
2023-04-01T05:31:22.489Z,98493.59
2023-04-01T05:33:50.980Z,98486.75
2023-04-01T05:36:19.947Z,98485.03
2023-04-01T05:38:48.069Z,98482.47
2023-04-01T05:41:17.898Z,98479.03
2023-04-01T05:43:47.264Z,98491.03
2023-04-01T05:46:34.181Z,98493.63
2023-04-01T05:49:17.968Z,98493.63
2023-04-01T05:51:46.970Z,98509.88
2023-04-01T05:54:14.568Z,98503.03
2023-04-01T05:56:42.485Z,98492.75
2023-04-01T05:59:12.542Z,98497.88
2023-04-01T06:01:40.857Z,98504.72
2023-04-01T06:04:08.749Z,98503.00
2023-04-01T06:06:37.279Z,98503.78
2023-04-01T06:09:15.967Z,98500.38
2023-04-01T06:12:15.436Z,98509.81
2023-04-01T06:15:04.495Z,98507.25
2023-04-01T06:17:44.961Z,98502.94
2023-04-01T06:20:23.703Z,98494.34
2023-04-01T06:23:07.599Z,98506.31
2023-04-01T06:26:01.412Z,98507.19
2023-04-01T06:28:48.270Z,98500.28
2023-04-01T06:31:22.832Z,98509.75
2023-04-01T06:34:16.391Z,98506.34
2023-04-01T06:37:01.607Z,98527.84
2023-04-01T06:39:55.817Z,98501.28
2023-04-01T06:42:46.200Z,98509.03
2023-04-01T06:45:43.700Z,98515.84
2023-04-01T06:48:49.468Z,98521.81
2023-04-01T06:51:45.481Z,98522.72
2023-04-01T06:54:40.128Z,98521.00
2023-04-01T06:57:21.216Z,98515.00
2023-04-01T06:59:51.092Z,98521.84
2023-04-01T07:02:29.218Z,98527.88
2023-04-01T07:04:59.935Z,98509.84
2023-04-01T07:07:36.179Z,98523.56
2023-04-01T07:10:14.842Z,98524.34
2023-04-01T07:13:17.933Z,98511.50
2023-04-01T07:16:05.204Z,98518.34
2023-04-01T07:18:42.510Z,98528.69
2023-04-01T07:21:16.905Z,98524.41
2023-04-01T07:23:47.641Z,98539.84
2023-04-01T07:26:44.552Z,98529.53
2023-04-01T07:29:18.034Z,98521.03
2023-04-01T07:32:21.073Z,98533.78
2023-04-01T07:34:58.963Z,98532.91
2023-04-01T07:37:32.847Z,98545.72
2023-04-01T07:40:08.411Z,98552.56
2023-04-01T07:42:51.197Z,98543.19
2023-04-01T07:45:25.017Z,98566.31
2023-04-01T07:48:09.732Z,98551.75
2023-04-01T07:50:43.286Z,98568.03
2023-04-01T07:53:18.655Z,98553.41
2023-04-01T07:55:53.742Z,98560.22
2023-04-01T07:58:27.222Z,98555.03
2023-04-01T08:00:59.816Z,98550.63
2023-04-01T08:03:50.881Z,98540.34
2023-04-01T08:06:26.563Z,98552.34
2023-04-01T08:09:04.085Z,98548.91
2023-04-01T08:12:02.394Z,98542.88
2023-04-01T08:14:57.838Z,98548.94
2023-04-01T08:17:35.684Z,98543.88
2023-04-01T08:20:30.780Z,98551.59
2023-04-01T08:23:06.649Z,98547.31
2023-04-01T08:25:41.636Z,98544.78
2023-04-01T08:28:19.932Z,98543.22
2023-04-01T08:30:53.370Z,98556.19
2023-04-01T08:33:26.122Z,98546.72
2023-04-01T08:36:05.863Z,98576.75
2023-04-01T08:38:40.880Z,98559.63
2023-04-01T08:41:32.380Z,98553.66
2023-04-01T08:44:40.557Z,98569.09
2023-04-01T08:47:41.910Z,98548.50
2023-04-01T08:50:36.055Z,98553.66
2023-04-01T08:53:26.165Z,98551.13
2023-04-01T08:56:05.565Z,98560.53
2023-04-01T08:59:01.247Z,98572.56
2023-04-01T09:01:53.369Z,98578.47
2023-04-01T09:05:01.378Z,98551.06
2023-04-01T09:07:43.846Z,98560.50
2023-04-01T09:10:40.184Z,98592.31
2023-04-01T09:13:53.354Z,98560.56
2023-04-01T09:16:38.021Z,98562.28
2023-04-01T09:19:24.518Z,98566.56
2023-04-01T09:22:25.741Z,98557.97
2023-04-01T09:25:19.840Z,98582.84
2023-04-01T09:27:57.758Z,98591.44
2023-04-01T09:30:47.567Z,98573.44
2023-04-01T09:34:00.174Z,98569.13
2023-04-01T09:36:48.356Z,98579.44
2023-04-01T09:39:38.161Z,98568.28
2023-04-01T09:42:31.607Z,98569.16
2023-04-01T09:45:25.432Z,98577.72
2023-04-01T09:48:04.939Z,98583.72
2023-04-01T09:50:41.186Z,98572.56
2023-04-01T09:53:22.137Z,98582.00
2023-04-01T09:56:38.324Z,98595.72
2023-04-01T09:59:43.678Z,98594.88
2023-04-01T10:03:01.038Z,98575.16
2023-04-01T10:06:03.074Z,98570.88
2023-04-01T10:09:00.179Z,98586.31
2023-04-01T10:11:55.447Z,98591.47
2023-04-01T10:14:47.788Z,98594.03
2023-04-01T10:17:59.803Z,98609.50
2023-04-01T10:20:55.028Z,98585.47
2023-04-01T10:23:42.103Z,98594.03
2023-04-01T10:26:36.168Z,98602.63
2023-04-01T10:30:24.034Z,98617.25
2023-04-01T10:33:42.928Z,98588.88
2023-04-01T10:36:42.966Z,98606.06
2023-04-01T10:39:39.588Z,98597.47
2023-04-01T10:43:03.695Z,98619.78
2023-04-01T10:46:07.481Z,98637.81
2023-04-01T10:49:12.234Z,98614.59
2023-04-01T10:52:32.705Z,98614.59
2023-04-01T10:55:55.903Z,98638.59
2023-04-01T10:59:28.840Z,98608.59
2023-04-01T11:02:55.616Z,98617.19
2023-04-01T11:06:19.244Z,98633.53
2023-04-01T11:09:28.079Z,98624.97
2023-04-01T11:12:31.783Z,98616.38
2023-04-01T11:15:49.175Z,98616.34
2023-04-01T11:18:54.204Z,98650.72
2023-04-01T11:21:54.439Z,98631.84
2023-04-01T11:24:51.458Z,98627.53
2023-04-01T11:27:55.857Z,98640.41
2023-04-01T11:30:35.255Z,98646.41
2023-04-01T11:33:06.887Z,98630.03
2023-04-01T11:35:55.393Z,98633.50
2023-04-01T11:38:40.557Z,98642.13
2023-04-01T11:41:37.510Z,98657.59
2023-04-01T11:44:38.241Z,98648.13
2023-04-01T11:47:37.910Z,98650.66
2023-04-01T11:50:20.666Z,98654.97
2023-04-01T11:53:32.792Z,98642.97
2023-04-01T11:56:16.715Z,98641.25
2023-04-01T11:59:05.362Z,98648.13
2023-04-01T12:01:45.207Z,98647.28
2023-04-01T12:04:35.334Z,98670.47
2023-04-01T12:07:17.054Z,98656.72
2023-04-01T12:09:55.295Z,98672.19
2023-04-01T12:12:31.777Z,98664.47
2023-04-01T12:15:16.400Z,98681.63
2023-04-01T12:17:51.092Z,98701.34
2023-04-01T12:20:39.243Z,98675.59
2023-04-01T12:23:21.599Z,98673.03
2023-04-01T12:26:15.607Z,98679.00
2023-04-01T12:28:55.390Z,98679.78
2023-04-01T12:31:37.611Z,98665.22
2023-04-01T12:34:25.353Z,98683.16
2023-04-01T12:37:05.752Z,98678.06
2023-04-01T12:39:59.772Z,98688.25
2023-04-01T12:42:40.908Z,98692.56
2023-04-01T12:45:28.658Z,98683.09
2023-04-01T12:48:42.250Z,98687.41
2023-04-01T12:51:35.914Z,98705.31
2023-04-01T12:54:37.002Z,98696.81
2023-04-01T12:57:21.280Z,98703.59
2023-04-01T13:00:09.154Z,98702.66
2023-04-01T13:02:51.583Z,98704.25
2023-04-01T13:05:54.857Z,98711.97
2023-04-01T13:08:38.279Z,98702.66
2023-04-01T13:11:15.281Z,98706.91
2023-04-01T13:14:16.006Z,98731.09
2023-04-01T13:16:55.258Z,98709.50
2023-04-01T13:19:27.543Z,98719.91
2023-04-01T13:22:03.125Z,98716.50
2023-04-01T13:24:42.873Z,98721.59
2023-04-01T13:27:19.232Z,98722.53
2023-04-01T13:29:57.673Z,98719.25
2023-04-01T13:35:23.011Z,98721.81
2023-04-01T13:38:10.661Z,98713.31
2023-04-01T13:41:02.398Z,98726.13
2023-04-01T13:43:36.654Z,98741.47
2023-04-01T13:46:32.718Z,98708.09
2023-04-01T13:49:23.100Z,98721.84
2023-04-01T13:52:08.631Z,98715.00
2023-04-01T13:55:14.249Z,98732.28
2023-04-01T13:57:56.393Z,98730.56
2023-04-01T14:00:41.397Z,98716.78
2023-04-01T14:03:30.620Z,98727.94
2023-04-01T14:06:35.888Z,98731.47
2023-04-01T14:09:25.234Z,98729.72
2023-04-01T14:12:02.783Z,98731.50
2023-04-01T14:14:45.403Z,98740.91
2023-04-01T14:17:26.707Z,98737.53
2023-04-01T14:20:27.443Z,98727.19
2023-04-01T14:23:13.227Z,98728.06
2023-04-01T14:25:58.653Z,98740.09
2023-04-01T14:28:36.967Z,98733.19
2023-04-01T14:31:29.179Z,98735.78
2023-04-01T14:34:08.230Z,98734.06
2023-04-01T14:36:53.276Z,98731.44
2023-04-01T14:39:35.890Z,98745.22
2023-04-01T14:42:22.310Z,98733.19
2023-04-01T14:45:14.365Z,98736.63
2023-04-01T14:47:48.249Z,98738.34
2023-04-01T14:50:19.901Z,98734.03
2023-04-01T14:52:58.672Z,98740.88
2023-04-01T14:55:33.503Z,98743.44
2023-04-01T14:58:12.793Z,98734.00
2023-04-01T15:00:57.430Z,98745.25
2023-04-01T15:03:31.374Z,98731.41
2023-04-01T15:06:23.501Z,98747.72
2023-04-01T15:08:59.331Z,98726.28
2023-04-01T15:11:39.845Z,98731.44
2023-04-01T15:14:31.347Z,98722.91
2023-04-01T15:17:18.874Z,98724.63
2023-04-01T15:20:03.132Z,98722.91
2023-04-01T15:22:46.453Z,98738.34
2023-04-01T15:25:45.296Z,98751.25
2023-04-01T15:28:26.689Z,98740.97
2023-04-01T15:30:58.730Z,98740.13
2023-04-01T15:33:50.272Z,98752.97
2023-04-01T15:36:31.808Z,98748.72
2023-04-01T15:39:11.404Z,98746.94
2023-04-01T15:41:51.167Z,98752.13
2023-04-01T15:44:46.576Z,98746.06
2023-04-01T15:47:34.230Z,98765.78
2023-04-01T15:50:24.277Z,98759.69
2023-04-01T15:53:02.393Z,98760.34
2023-04-01T15:55:37.397Z,98766.56
2023-04-01T15:58:27.004Z,98767.53
2023-04-01T16:01:06.331Z,98760.72
2023-04-01T16:03:42.480Z,98766.75
2023-04-01T16:06:25.566Z,98776.22
2023-04-01T16:09:04.455Z,98774.44
2023-04-01T16:11:43.684Z,98769.28
2023-04-01T16:14:26.016Z,98765.00
2023-04-01T16:17:09.770Z,98764.13
2023-04-01T16:19:52.016Z,98774.50
2023-04-01T16:22:25.470Z,98762.44
2023-04-01T16:24:56.809Z,98771.94
2023-04-01T16:27:29.320Z,98764.16
2023-04-01T16:30:02.400Z,98772.72
2023-04-01T16:32:41.166Z,98769.34
2023-04-01T16:35:26.270Z,98765.06
2023-04-01T16:38:01.902Z,98768.47
2023-04-01T16:40:45.079Z,98766.75
2023-04-01T16:43:21.632Z,98773.63
2023-04-01T16:45:59.678Z,98775.38
2023-04-01T16:48:36.094Z,98775.34
2023-04-01T16:51:06.787Z,98788.19
2023-04-01T16:53:44.470Z,98797.63
2023-04-01T16:56:16.314Z,98812.22
2023-04-01T16:58:59.494Z,98803.53
2023-04-01T17:01:31.507Z,98820.72
2023-04-01T17:04:06.555Z,98813.81
2023-04-01T17:06:45.739Z,98824.88
2023-04-01T17:09:28.914Z,98835.22
2023-04-01T17:12:00.019Z,98842.88
2023-04-01T17:14:33.959Z,98844.59
2023-04-01T17:17:18.823Z,98840.22
2023-04-01T17:20:04.516Z,98843.50
2023-04-01T17:22:38.381Z,98852.91
2023-04-01T17:25:32.596Z,98856.31
2023-04-01T17:28:07.179Z,98848.66
2023-04-01T17:30:40.986Z,98863.19
2023-04-01T17:33:25.506Z,98868.34
2023-04-01T17:36:00.403Z,98860.63
2023-04-01T17:38:44.992Z,98869.22
2023-04-01T17:41:26.394Z,98867.47
2023-04-01T17:44:03.398Z,98867.47
2023-04-01T17:46:42.831Z,98864.91
2023-04-01T17:49:25.511Z,98868.28
2023-04-01T17:52:00.181Z,98866.56
2023-04-01T17:54:38.796Z,98867.44
2023-04-01T17:57:34.160Z,98866.53
2023-04-01T18:00:05.380Z,98869.94
2023-04-01T18:02:46.716Z,98868.22
2023-04-01T18:05:32.754Z,98881.94
2023-04-01T18:08:18.822Z,98881.94
2023-04-01T18:10:59.684Z,98879.31
2023-04-01T18:13:57.709Z,98882.78
2023-04-01T18:16:53.032Z,98890.34
2023-04-01T18:19:31.391Z,98881.75
2023-04-01T18:22:03.830Z,98892.00
2023-04-01T18:24:37.598Z,98885.16
2023-04-01T18:27:09.333Z,98891.97
2023-04-01T18:29:43.297Z,98905.66
2023-04-01T18:32:20.307Z,98904.75
2023-04-01T18:35:05.504Z,98903.91
2023-04-01T18:37:39.037Z,98901.28
2023-04-01T18:40:19.013Z,98900.47
2023-04-01T18:42:59.286Z,98903.84
2023-04-01T18:45:34.040Z,98892.69
2023-04-01T18:48:22.380Z,98901.28
2023-04-01T18:50:55.472Z,98907.31
2023-04-01T18:53:30.675Z,98910.69
2023-04-01T18:56:01.084Z,98915.78
2023-04-01T18:58:35.816Z,98915.84
2023-04-01T19:01:29.052Z,98921.78
2023-04-01T19:04:06.292Z,98926.94
2023-04-01T19:06:36.880Z,98934.63
2023-04-01T19:09:23.422Z,98933.81
2023-04-01T19:12:05.180Z,98937.22
2023-04-01T19:14:48.510Z,98943.19
2023-04-01T19:17:34.034Z,98951.72
2023-04-01T19:20:10.644Z,98950.00
2023-04-01T19:22:57.176Z,98946.63
2023-04-01T19:25:36.229Z,98952.63
2023-04-01T19:28:18.252Z,98956.09
2023-04-01T19:30:55.829Z,98957.00
2023-04-01T19:33:44.167Z,98953.59
2023-04-01T19:36:17.962Z,98954.50
2023-04-01T19:38:55.126Z,98960.56
2023-04-01T19:41:34.488Z,98960.63
2023-04-01T19:44:13.190Z,98961.47
2023-04-01T19:46:46.203Z,98976.97
2023-04-01T19:49:38.264Z,98974.47
2023-04-01T19:52:14.334Z,98981.34
2023-04-01T19:54:47.939Z,98978.81
2023-04-01T19:57:23.720Z,98979.69
2023-04-01T19:59:58.738Z,98978.00
2023-04-01T20:02:39.563Z,98977.09
2023-04-01T20:05:28.400Z,98987.38
2023-04-01T20:08:01.616Z,98973.66
2023-04-01T20:10:37.353Z,98990.78
2023-04-01T20:13:13.774Z,98985.69
2023-04-01T20:15:43.525Z,98996.81
2023-04-01T20:18:18.018Z,99000.31
2023-04-01T20:20:57.571Z,99003.72
2023-04-01T20:23:40.253Z,99008.78
2023-04-01T20:26:11.380Z,98997.63
2023-04-01T20:28:46.047Z,99015.69
2023-04-01T20:31:26.076Z,99003.63
2023-04-01T20:34:20.465Z,99018.19
2023-04-01T20:37:02.024Z,99020.69
2023-04-01T20:40:08.754Z,99019.78
2023-04-01T20:42:51.484Z,99021.44
2023-04-01T20:45:35.974Z,99017.19
2023-04-01T20:48:26.358Z,99027.44
2023-04-01T20:50:59.922Z,99030.81
2023-04-01T20:53:38.048Z,99030.84
2023-04-01T20:56:37.896Z,99031.59
2023-04-01T20:59:26.523Z,99041.88
2023-04-01T21:02:07.359Z,99038.44
2023-04-01T21:04:51.074Z,99040.16
2023-04-01T21:07:32.372Z,99037.53
2023-04-01T21:10:29.373Z,99047.00
2023-04-01T21:13:13.020Z,99041.84
2023-04-01T21:15:44.618Z,99053.84
2023-04-01T21:18:43.656Z,99049.59
2023-04-01T21:21:26.401Z,99055.59
2023-04-01T21:24:07.839Z,99056.50
2023-04-01T21:26:48.548Z,99060.72
2023-04-01T21:29:35.245Z,99061.63
2023-04-01T21:32:44.323Z,99063.41
2023-04-01T21:35:28.548Z,99060.75
2023-04-01T21:38:08.783Z,99068.50
2023-04-01T21:40:54.758Z,99066.00
2023-04-01T21:43:42.815Z,99065.13
2023-04-01T21:46:43.659Z,99075.50
2023-04-01T21:49:29.096Z,99072.91
2023-04-01T21:52:19.688Z,99072.97
2023-04-01T21:55:22.346Z,99075.53
2023-04-01T21:58:27.853Z,99080.69
2023-04-01T22:01:10.657Z,99087.53
2023-04-01T22:04:03.332Z,99089.34
2023-04-01T22:06:37.261Z,99090.97
2023-04-01T22:09:13.280Z,99088.50
2023-04-01T22:11:55.544Z,99088.41
2023-04-01T22:14:32.428Z,99090.06
2023-04-01T22:17:09.009Z,99088.41
2023-04-01T22:19:47.465Z,99092.69
2023-04-01T22:22:20.548Z,99093.66
2023-04-01T22:24:59.033Z,99092.78
2023-04-01T22:27:32.775Z,99096.22
2023-04-01T22:30:09.042Z,99094.50
2023-04-01T22:32:45.667Z,99094.41
2023-04-01T22:35:27.524Z,99096.22
2023-04-01T22:38:03.792Z,99103.06
2023-04-01T22:40:36.907Z,99090.22
2023-04-01T22:43:09.667Z,99092.78
2023-04-01T22:45:49.190Z,99102.28
2023-04-01T22:48:22.746Z,99099.72
2023-04-01T22:50:58.807Z,99097.09
2023-04-01T22:53:41.832Z,99108.13
2023-04-01T22:56:17.211Z,99100.50
2023-04-01T22:58:51.444Z,99103.13
2023-04-01T23:01:23.988Z,99109.94
2023-04-01T23:03:53.827Z,99112.50
2023-04-01T23:06:28.130Z,99113.41
2023-04-01T23:09:04.977Z,99120.22
2023-04-01T23:11:37.062Z,99121.94
2023-04-01T23:14:24.447Z,99123.56
2023-04-01T23:16:58.037Z,99128.72
2023-04-01T23:19:34.371Z,99124.44
2023-04-01T23:22:07.456Z,99132.13
2023-04-01T23:24:41.113Z,99138.13
2023-04-01T23:27:14.709Z,99138.22
2023-04-01T23:29:43.750Z,99140.78
2023-04-01T23:32:18.575Z,99144.94
2023-04-01T23:34:51.639Z,99152.47
2023-04-01T23:37:20.422Z,99156.78
2023-04-01T23:39:50.400Z,99160.81
2023-04-01T23:42:24.107Z,99164.09
2023-04-01T23:44:54.576Z,99164.13
2023-04-01T23:47:24.802Z,99170.97
2023-04-01T23:49:56.893Z,99179.38
2023-04-01T23:52:26.874Z,99185.44
2023-04-01T23:54:58.277Z,99188.03
2023-04-01T23:57:30.919Z,99185.38
